sensor_id;sensor_type;location;lat;lon;timestamp;pressure;altitude;pressure_sealevel;temperature;humidity
73651;BME280;61944;52.538;6.108;2023-11-21T05:46:56;101152.69;;;9.37;100.00
73651;BME280;61944;52.538;6.108;2023-11-21T05:49:22;101156.09;;;9.46;100.00
73651;BME280;61944;52.538;6.108;2023-11-21T05:51:47;101169.25;;;9.46;100.00
73651;BME280;61944;52.538;6.108;2023-11-21T05:54:13;101173.31;;;9.48;100.00
73651;BME280;61944;52.538;6.108;2023-11-21T05:56:38;101173.75;;;9.50;100.00
73651;BME280;61944;52.538;6.108;2023-11-21T05:59:04;101174.13;;;9.49;100.00
73651;BME280;61944;52.538;6.108;2023-11-21T06:01:29;101181.13;;;9.59;100.00
73651;BME280;61944;52.538;6.108;2023-11-21T06:03:54;101192.75;;;9.61;100.00
73651;BME280;61944;52.538;6.108;2023-11-21T06:06:24;101204.38;;;9.63;100.00
73651;BME280;61944;52.538;6.108;2023-11-21T06:08:52;101195.66;;;9.64;100.00
73651;BME280;61944;52.538;6.108;2023-11-21T06:11:18;101209.72;;;9.68;100.00
73651;BME280;61944;52.538;6.108;2023-11-21T06:13:44;101210.88;;;9.67;100.00
73651;BME280;61944;52.538;6.108;2023-11-21T06:16:09;101224.50;;;9.68;100.00
73651;BME280;61944;52.538;6.108;2023-11-21T06:18:34;101229.63;;;9.66;100.00
73651;BME280;61944;52.538;6.108;2023-11-21T06:21:00;101237.38;;;9.73;100.00
73651;BME280;61944;52.538;6.108;2023-11-21T06:23:26;101231.88;;;9.76;100.00
73651;BME280;61944;52.538;6.108;2023-11-21T06:25:51;101238.56;;;9.72;100.00
73651;BME280;61944;52.538;6.108;2023-11-21T06:28:16;101243.69;;;9.70;100.00
73651;BME280;61944;52.538;6.108;2023-11-21T06:30:43;101241.81;;;9.74;100.00
73651;BME280;61944;52.538;6.108;2023-11-21T06:33:09;101242.97;;;9.73;100.00
73651;BME280;61944;52.538;6.108;2023-11-21T06:35:34;101246.94;;;9.72;100.00
73651;BME280;61944;52.538;6.108;2023-11-21T06:38:00;101247.38;;;9.74;100.00
73651;BME280;61944;52.538;6.108;2023-11-21T06:40:25;101253.41;;;9.76;100.00
73651;BME280;61944;52.538;6.108;2023-11-21T06:42:50;101258.56;;;9.74;100.00
73651;BME280;61944;52.538;6.108;2023-11-21T06:45:16;101265.41;;;9.76;100.00
73651;BME280;61944;52.538;6.108;2023-11-21T06:47:42;101271.47;;;9.79;100.00
73651;BME280;61944;52.538;6.108;2023-11-21T06:50:07;101274.25;;;9.79;100.00
73651;BME280;61944;52.538;6.108;2023-11-21T06:52:33;101274.97;;;9.75;100.00
73651;BME280;61944;52.538;6.108;2023-11-21T06:54:58;101277.84;;;9.79;100.00
73651;BME280;61944;52.538;6.108;2023-11-21T06:57:24;101283.44;;;9.79;100.00
73651;BME280;61944;52.538;6.108;2023-11-21T06:59:49;101286.25;;;9.79;100.00
73651;BME280;61944;52.538;6.108;2023-11-21T07:02:16;101295.78;;;9.78;100.00
73651;BME280;61944;52.538;6.108;2023-11-21T07:04:44;101295.44;;;9.80;100.00
73651;BME280;61944;52.538;6.108;2023-11-21T07:07:10;101301.38;;;9.78;100.00
73651;BME280;61944;52.538;6.108;2023-11-21T07:09:35;101307.69;;;9.75;100.00
73651;BME280;61944;52.538;6.108;2023-11-21T07:12:01;101318.78;;;9.87;100.00
73651;BME280;61944;52.538;6.108;2023-11-21T07:14:29;101325.03;;;9.81;100.00
73651;BME280;61944;52.538;6.108;2023-11-21T07:16:54;101331.09;;;10.18;100.00
73651;BME280;61944;52.538;6.108;2023-11-21T07:19:20;101338.97;;;9.96;100.00
73651;BME280;61944;52.538;6.108;2023-11-21T07:21:46;101338.38;;;9.87;100.00
73651;BME280;61944;52.538;6.108;2023-11-21T07:24:12;101337.66;;;9.74;100.00
73651;BME280;61944;52.538;6.108;2023-11-21T07:26:37;101344.31;;;9.54;100.00
73651;BME280;61944;52.538;6.108;2023-11-21T07:29:03;101356.50;;;9.62;100.00
73651;BME280;61944;52.538;6.108;2023-11-21T07:31:29;101363.53;;;9.55;100.00
73651;BME280;61944;52.538;6.108;2023-11-21T07:33:55;101369.81;;;9.52;100.00
73651;BME280;61944;52.538;6.108;2023-11-21T07:36:22;101365.94;;;9.41;100.00
73651;BME280;61944;52.538;6.108;2023-11-21T07:38:48;101372.53;;;9.49;100.00
73651;BME280;61944;52.538;6.108;2023-11-21T07:41:13;101371.69;;;9.48;100.00
73651;BME280;61944;52.538;6.108;2023-11-21T07:43:41;101370.72;;;9.41;100.00
73651;BME280;61944;52.538;6.108;2023-11-21T07:46:06;101378.66;;;9.54;100.00
73651;BME280;61944;52.538;6.108;2023-11-21T07:48:33;101377.75;;;9.50;100.00
73651;BME280;61944;52.538;6.108;2023-11-21T07:50:59;101381.44;;;9.54;100.00
73651;BME280;61944;52.538;6.108;2023-11-21T07:53:25;101374.25;;;9.53;100.00
73651;BME280;61944;52.538;6.108;2023-11-21T07:55:51;101384.69;;;9.56;100.00
73651;BME280;61944;52.538;6.108;2023-11-21T07:58:18;101385.44;;;9.53;100.00
73651;BME280;61944;52.538;6.108;2023-11-21T08:00:43;101396.78;;;9.61;100.00
73651;BME280;61944;52.538;6.108;2023-11-21T08:03:09;101402.19;;;9.53;100.00
73651;BME280;61944;52.538;6.108;2023-11-21T08:05:34;101414.34;;;9.61;100.00
73651;BME280;61944;52.538;6.108;2023-11-21T08:07:59;101419.13;;;9.61;100.00
73651;BME280;61944;52.538;6.108;2023-11-21T08:10:25;101429.41;;;9.56;100.00
73651;BME280;61944;52.538;6.108;2023-11-21T08:12:51;101428.78;;;9.47;100.00
73651;BME280;61944;52.538;6.108;2023-11-21T08:15:18;101435.69;;;9.38;100.00
73651;BME280;61944;52.538;6.108;2023-11-21T08:17:44;101428.78;;;9.47;100.00
73651;BME280;61944;52.538;6.108;2023-11-21T08:20:10;101427.81;;;9.55;100.00
73651;BME280;61944;52.538;6.108;2023-11-21T08:22:36;101432.69;;;9.30;100.00
73651;BME280;61944;52.538;6.108;2023-11-21T08:25:02;101439.72;;;9.40;100.00
73651;BME280;61944;52.538;6.108;2023-11-21T08:27:29;101453.81;;;9.44;100.00
73651;BME280;61944;52.538;6.108;2023-11-21T08:29:54;101456.72;;;9.47;100.00
73651;BME280;61944;52.538;6.108;2023-11-21T08:32:21;101448.50;;;9.54;100.00
73651;BME280;61944;52.538;6.108;2023-11-21T08:34:47;101456.44;;;9.52;100.00
73651;BME280;61944;52.538;6.108;2023-11-21T08:37:16;101462.03;;;9.52;100.00
73651;BME280;61944;52.538;6.108;2023-11-21T08:39:41;101455.44;;;9.45;100.00
73651;BME280;61944;52.538;6.108;2023-11-21T08:42:07;101460.19;;;9.44;100.00
73651;BME280;61944;52.538;6.108;2023-11-21T08:44:33;101463.69;;;9.53;100.00
73651;BME280;61944;52.538;6.108;2023-11-21T08:46:58;101456.81;;;9.51;100.00
73651;BME280;61944;52.538;6.108;2023-11-21T08:49:24;101457.47;;;9.60;100.00
73651;BME280;61944;52.538;6.108;2023-11-21T08:51:51;101456.59;;;9.44;100.00
73651;BME280;61944;52.538;6.108;2023-11-21T08:54:16;101469.25;;;9.53;100.00
73651;BME280;61944;52.538;6.108;2023-11-21T08:56:43;101481.75;;;9.44;100.00
73651;BME280;61944;52.538;6.108;2023-11-21T08:59:08;101494.66;;;9.48;100.00
73651;BME280;61944;52.538;6.108;2023-11-21T09:01:34;101502.13;;;9.44;100.00
73651;BME280;61944;52.538;6.108;2023-11-21T09:03:59;101504.38;;;9.39;100.00
73651;BME280;61944;52.538;6.108;2023-11-21T09:06:24;101511.91;;;9.38;100.00
73651;BME280;61944;52.538;6.108;2023-11-21T09:08:50;101515.41;;;9.47;100.00
73651;BME280;61944;52.538;6.108;2023-11-21T09:11:15;101524.00;;;9.42;100.00
73651;BME280;61944;52.538;6.108;2023-11-21T09:13:40;101531.47;;;9.38;100.00
73651;BME280;61944;52.538;6.108;2023-11-21T09:16:06;101538.91;;;9.46;100.00
73651;BME280;61944;52.538;6.108;2023-11-21T09:18:32;101532.66;;;9.37;100.00
73651;BME280;61944;52.538;6.108;2023-11-21T09:20:57;101543.22;;;9.44;100.00
73651;BME280;61944;52.538;6.108;2023-11-21T09:23:23;101552.41;;;9.44;100.00
73651;BME280;61944;52.538;6.108;2023-11-21T09:25:49;101548.25;;;9.38;100.00
73651;BME280;61944;52.538;6.108;2023-11-21T09:28:15;101551.03;;;9.38;100.00
73651;BME280;61944;52.538;6.108;2023-11-21T09:30:41;101562.47;;;9.33;100.00
73651;BME280;61944;52.538;6.108;2023-11-21T09:33:06;101565.84;;;9.39;100.00
73651;BME280;61944;52.538;6.108;2023-11-21T09:35:32;101557.34;;;9.35;100.00
73651;BME280;61944;52.538;6.108;2023-11-21T09:37:57;101561.78;;;9.36;100.00
73651;BME280;61944;52.538;6.108;2023-11-21T09:40:22;101566.91;;;9.34;100.00
73651;BME280;61944;52.538;6.108;2023-11-21T09:45:25;101569.06;;;9.53;100.00
73651;BME280;61944;52.538;6.108;2023-11-21T09:47:53;101563.09;;;9.54;100.00
73651;BME280;61944;52.538;6.108;2023-11-21T09:50:19;101576.94;;;9.63;100.00
73651;BME280;61944;52.538;6.108;2023-11-21T09:55:27;101595.25;;;9.48;100.00
73651;BME280;61944;52.538;6.108;2023-11-21T09:57:57;101591.66;;;9.48;100.00
73651;BME280;61944;52.538;6.108;2023-11-21T10:00:23;101596.63;;;9.54;100.00
73651;BME280;61944;52.538;6.108;2023-11-21T10:02:49;101602.91;;;9.64;100.00
73651;BME280;61944;52.538;6.108;2023-11-21T10:05:16;101603.72;;;9.64;100.00
73651;BME280;61944;52.538;6.108;2023-11-21T10:07:43;101607.72;;;9.51;100.00
73651;BME280;61944;52.538;6.108;2023-11-21T10:10:10;101614.09;;;9.64;100.00
73651;BME280;61944;52.538;6.108;2023-11-21T10:12:36;101622.84;;;9.62;100.00
73651;BME280;61944;52.538;6.108;2023-11-21T10:15:07;101622.03;;;9.62;100.00
73651;BME280;61944;52.538;6.108;2023-11-21T10:17:35;101634.94;;;9.66;100.00
73651;BME280;61944;52.538;6.108;2023-11-21T10:20:09;101639.16;;;9.60;100.00
73651;BME280;61944;52.538;6.108;2023-11-21T10:22:39;101646.72;;;9.60;100.00
73651;BME280;61944;52.538;6.108;2023-11-21T10:25:06;101652.06;;;9.65;100.00
73651;BME280;61944;52.538;6.108;2023-11-21T10:27:33;101646.00;;;9.63;100.00
73651;BME280;61944;52.538;6.108;2023-11-21T10:30:03;101661.16;;;9.62;100.00
73651;BME280;61944;52.538;6.108;2023-11-21T10:32:31;101666.38;;;9.63;100.00
73651;BME280;61944;52.538;6.108;2023-11-21T10:34:58;101658.81;;;9.64;100.00
73651;BME280;61944;52.538;6.108;2023-11-21T10:37:25;101660.69;;;9.60;100.00
73651;BME280;61944;52.538;6.108;2023-11-21T10:39:57;101659.16;;;9.62;100.00
73651;BME280;61944;52.538;6.108;2023-11-21T10:42:23;101657.31;;;9.66;100.00
73651;BME280;61944;52.538;6.108;2023-11-21T10:44:49;101666.97;;;9.69;100.00
73651;BME280;61944;52.538;6.108;2023-11-21T10:47:16;101669.88;;;9.60;100.00
73651;BME280;61944;52.538;6.108;2023-11-21T10:49:44;101676.28;;;9.61;100.00
73651;BME280;61944;52.538;6.108;2023-11-21T10:52:10;101686.31;;;9.62;100.00
73651;BME280;61944;52.538;6.108;2023-11-21T10:54:43;101677.56;;;9.63;100.00
73651;BME280;61944;52.538;6.108;2023-11-21T10:57:10;101689.31;;;9.69;100.00
73651;BME280;61944;52.538;6.108;2023-11-21T10:59:36;101680.25;;;9.72;100.00
73651;BME280;61944;52.538;6.108;2023-11-21T11:02:24;101683.94;;;9.76;100.00
73651;BME280;61944;52.538;6.108;2023-11-21T11:04:54;101688.16;;;9.70;100.00
73651;BME280;61944;52.538;6.108;2023-11-21T11:07:21;101699.13;;;9.50;100.00
73651;BME280;61944;52.538;6.108;2023-11-21T11:09:51;101699.13;;;9.50;100.00
73651;BME280;61944;52.538;6.108;2023-11-21T11:12:17;101695.03;;;9.60;100.00
73651;BME280;61944;52.538;6.108;2023-11-21T11:14:44;101700.28;;;9.62;100.00
73651;BME280;61944;52.538;6.108;2023-11-21T11:17:10;101698.09;;;9.43;100.00
73651;BME280;61944;52.538;6.108;2023-11-21T11:19:36;101706.34;;;9.39;100.00
73651;BME280;61944;52.538;6.108;2023-11-21T11:25:27;101717.78;;;9.34;100.00
73651;BME280;61944;52.538;6.108;2023-11-21T11:28:06;101716.59;;;9.47;100.00
73651;BME280;61944;52.538;6.108;2023-11-21T11:31:04;101725.19;;;9.42;100.00
73651;BME280;61944;52.538;6.108;2023-11-21T11:33:48;101724.75;;;9.52;100.00
73651;BME280;61944;52.538;6.108;2023-11-21T11:38:49;101731.25;;;9.44;100.00
73651;BME280;61944;52.538;6.108;2023-11-21T11:41:26;101731.38;;;9.48;100.00
73651;BME280;61944;52.538;6.108;2023-11-21T11:43:53;101721.72;;;9.45;100.00
73651;BME280;61944;52.538;6.108;2023-11-21T11:46:19;101732.91;;;9.45;100.00
73651;BME280;61944;52.538;6.108;2023-11-21T11:48:48;101743.63;;;9.43;100.00
73651;BME280;61944;52.538;6.108;2023-11-21T11:51:15;101749.19;;;9.43;100.00
73651;BME280;61944;52.538;6.108;2023-11-21T11:53:44;101759.91;;;9.41;100.00
73651;BME280;61944;52.538;6.108;2023-11-21T11:56:30;101760.25;;;9.40;100.00
73651;BME280;61944;52.538;6.108;2023-11-21T11:59:00;101766.66;;;9.40;100.00
73651;BME280;61944;52.538;6.108;2023-11-21T12:01:28;101769.09;;;9.42;100.00
73651;BME280;61944;52.538;6.108;2023-11-21T12:04:23;101772.38;;;9.44;100.00
73651;BME280;61944;52.538;6.108;2023-11-21T12:06:52;101771.22;;;9.45;100.00
73651;BME280;61944;52.538;6.108;2023-11-21T12:09:22;101773.41;;;9.39;100.00
73651;BME280;61944;52.538;6.108;2023-11-21T12:11:49;101778.53;;;9.37;100.00
73651;BME280;61944;52.538;6.108;2023-11-21T12:14:15;101788.78;;;9.33;100.00
73651;BME280;61944;52.538;6.108;2023-11-21T12:16:42;101791.56;;;9.33;100.00
73651;BME280;61944;52.538;6.108;2023-11-21T12:19:09;101791.56;;;9.33;100.00
73651;BME280;61944;52.538;6.108;2023-11-21T12:21:36;101792.75;;;9.32;100.00
73651;BME280;61944;52.538;6.108;2023-11-21T12:24:01;101794.13;;;9.26;100.00
73651;BME280;61944;52.538;6.108;2023-11-21T12:26:27;101796.00;;;9.34;100.00
73651;BME280;61944;52.538;6.108;2023-11-21T12:28:53;101790.63;;;9.29;100.00
73651;BME280;61944;52.538;6.108;2023-11-21T12:31:22;101809.13;;;9.21;100.00
73651;BME280;61944;52.538;6.108;2023-11-21T12:33:47;101802.22;;;9.06;100.00
73651;BME280;61944;52.538;6.108;2023-11-21T12:36:13;101802.03;;;9.24;100.00
73651;BME280;61944;52.538;6.108;2023-11-21T12:38:38;101813.22;;;9.24;100.00
73651;BME280;61944;52.538;6.108;2023-11-21T12:41:04;101814.16;;;9.28;100.00
73651;BME280;61944;52.538;6.108;2023-11-21T12:43:30;101811.00;;;9.29;100.00
73651;BME280;61944;52.538;6.108;2023-11-21T12:46:06;101813.22;;;9.24;100.00
73651;BME280;61944;52.538;6.108;2023-11-21T12:48:32;101808.09;;;9.38;100.00
73651;BME280;61944;52.538;6.108;2023-11-21T12:50:57;101803.91;;;9.32;100.00
73651;BME280;61944;52.538;6.108;2023-11-21T12:53:25;101804.22;;;9.18;100.00
73651;BME280;61944;52.538;6.108;2023-11-21T12:55:51;101812.25;;;9.07;100.00
73651;BME280;61944;52.538;6.108;2023-11-21T12:58:17;101813.31;;;9.15;100.00
73651;BME280;61944;52.538;6.108;2023-11-21T13:00:47;101814.75;;;9.00;100.00
73651;BME280;61944;52.538;6.108;2023-11-21T13:03:14;101818.03;;;9.02;100.00
73651;BME280;61944;52.538;6.108;2023-11-21T13:05:43;101825.44;;;8.86;100.00
73651;BME280;61944;52.538;6.108;2023-11-21T13:08:10;101839.69;;;9.05;100.00
73651;BME280;61944;52.538;6.108;2023-11-21T13:10:42;101851.16;;;9.25;100.00
73651;BME280;61944;52.538;6.108;2023-11-21T13:13:10;101860.38;;;9.04;100.00
73651;BME280;61944;52.538;6.108;2023-11-21T13:15:48;101862.97;;;9.09;100.00
73651;BME280;61944;52.538;6.108;2023-11-21T13:18:13;101860.00;;;8.93;100.00
73651;BME280;61944;52.538;6.108;2023-11-21T13:20:40;101883.19;;;8.94;100.00
73651;BME280;61944;52.538;6.108;2023-11-21T13:23:10;101879.16;;;8.83;100.00
73651;BME280;61944;52.538;6.108;2023-11-21T13:25:38;101887.09;;;9.14;100.00
73651;BME280;61944;52.538;6.108;2023-11-21T13:28:09;101885.75;;;8.99;100.00
73651;BME280;61944;52.538;6.108;2023-11-21T13:30:37;101897.63;;;8.96;100.00
73651;BME280;61944;52.538;6.108;2023-11-21T13:33:05;101908.34;;;9.06;100.00
73651;BME280;61944;52.538;6.108;2023-11-21T13:35:36;101915.19;;;8.97;100.00
73651;BME280;61944;52.538;6.108;2023-11-21T13:38:15;101916.13;;;9.01;100.00
73651;BME280;61944;52.538;6.108;2023-11-21T13:40:51;101910.25;;;8.72;100.00
73651;BME280;61944;52.538;6.108;2023-11-21T13:43:23;101909.25;;;8.98;100.00
73651;BME280;61944;52.538;6.108;2023-11-21T13:45:51;101910.63;;;8.92;100.00
73651;BME280;61944;52.538;6.108;2023-11-21T13:48:23;101927.31;;;8.80;100.00
73651;BME280;61944;52.538;6.108;2023-11-21T13:50:56;101917.97;;;8.97;100.00
73651;BME280;61944;52.538;6.108;2023-11-21T13:53:34;101919.41;;;9.03;100.00
73651;BME280;61944;52.538;6.108;2023-11-21T13:56:03;101932.69;;;8.85;100.00
73651;BME280;61944;52.538;6.108;2023-11-21T13:58:28;101929.22;;;8.88;100.00
73651;BME280;61944;52.538;6.108;2023-11-21T14:01:17;101930.84;;;8.89;100.00
73651;BME280;61944;52.538;6.108;2023-11-21T14:03:55;101931.94;;;8.97;100.00
73651;BME280;61944;52.538;6.108;2023-11-21T14:06:27;101934.97;;;9.04;100.00
73651;BME280;61944;52.538;6.108;2023-11-21T14:08:59;101930.97;;;9.13;100.00
73651;BME280;61944;52.538;6.108;2023-11-21T14:11:30;101941.94;;;8.98;100.00
73651;BME280;61944;52.538;6.108;2023-11-21T14:13:55;101940.38;;;8.88;100.00
73651;BME280;61944;52.538;6.108;2023-11-21T14:16:20;101942.41;;;8.79;100.00
73651;BME280;61944;52.538;6.108;2023-11-21T14:18:46;101957.66;;;9.02;100.00
73651;BME280;61944;52.538;6.108;2023-11-21T14:21:23;101961.22;;;9.11;100.00
73651;BME280;61944;52.538;6.108;2023-11-21T14:23:49;101963.53;;;9.09;100.00
73651;BME280;61944;52.538;6.108;2023-11-21T14:26:15;101977.81;;;8.87;100.00
73651;BME280;61944;52.538;6.108;2023-11-21T14:28:41;101984.50;;;8.94;100.00
73651;BME280;61944;52.538;6.108;2023-11-21T14:31:08;101980.91;;;8.94;100.00
73651;BME280;61944;52.538;6.108;2023-11-21T14:33:38;101983.31;;;8.74;100.00
73651;BME280;61944;52.538;6.108;2023-11-21T14:36:04;101995.44;;;8.79;100.00
73651;BME280;61944;52.538;6.108;2023-11-21T14:38:29;101991.50;;;8.80;100.00
73651;BME280;61944;52.538;6.108;2023-11-21T14:40:54;102009.81;;;8.89;100.00
73651;BME280;61944;52.538;6.108;2023-11-21T14:43:20;102008.13;;;8.76;100.00
73651;BME280;61944;52.538;6.108;2023-11-21T14:45:45;102013.97;;;8.83;100.00
73651;BME280;61944;52.538;6.108;2023-11-21T14:48:11;102018.56;;;8.88;100.00
73651;BME280;61944;52.538;6.108;2023-11-21T14:50:54;102020.31;;;8.71;100.00
73651;BME280;61944;52.538;6.108;2023-11-21T14:53:28;102019.81;;;8.69;100.00
73651;BME280;61944;52.538;6.108;2023-11-21T14:56:09;102040.03;;;8.96;100.00
73651;BME280;61944;52.538;6.108;2023-11-21T14:58:34;102043.59;;;8.75;100.00
73651;BME280;61944;52.538;6.108;2023-11-21T15:01:02;102052.44;;;8.78;100.00
73651;BME280;61944;52.538;6.108;2023-11-21T15:03:29;102044.06;;;8.48;100.00
73651;BME280;61944;52.538;6.108;2023-11-21T15:05:58;102062.88;;;8.60;100.00
73651;BME280;61944;52.538;6.108;2023-11-21T15:08:24;102064.69;;;8.55;100.00
73651;BME280;61944;52.538;6.108;2023-11-21T15:10:57;102066.03;;;8.58;100.00
73651;BME280;61944;52.538;6.108;2023-11-21T15:13:22;102074.94;;;8.43;100.00
73651;BME280;61944;52.538;6.108;2023-11-21T15:15:49;102082.28;;;8.39;100.00
73651;BME280;61944;52.538;6.108;2023-11-21T15:18:15;102091.34;;;8.35;100.00
73651;BME280;61944;52.538;6.108;2023-11-21T15:20:41;102086.03;;;8.60;100.00
73651;BME280;61944;52.538;6.108;2023-11-21T15:23:07;102088.84;;;8.51;100.00
73651;BME280;61944;52.538;6.108;2023-11-21T15:25:33;102092.56;;;8.64;100.00
73651;BME280;61944;52.538;6.108;2023-11-21T15:28:00;102091.81;;;8.46;100.00
73651;BME280;61944;52.538;6.108;2023-11-21T15:30:25;102096.72;;;8.58;100.00
73651;BME280;61944;52.538;6.108;2023-11-21T15:32:51;102096.25;;;8.56;100.00
73651;BME280;61944;52.538;6.108;2023-11-21T15:35:18;102101.13;;;8.59;100.00
73651;BME280;61944;52.538;6.108;2023-11-21T15:37:44;102108.56;;;8.85;100.00
73651;BME280;61944;52.538;6.108;2023-11-21T15:40:10;102110.22;;;8.86;100.00
73651;BME280;61944;52.538;6.108;2023-11-21T15:42:36;102111.22;;;8.81;100.00
73651;BME280;61944;52.538;6.108;2023-11-21T15:45:03;102118.44;;;8.82;100.00
73651;BME280;61944;52.538;6.108;2023-11-21T15:47:32;102125.91;;;8.99;100.00
73651;BME280;61944;52.538;6.108;2023-11-21T15:49:57;102124.66;;;8.88;100.00
73651;BME280;61944;52.538;6.108;2023-11-21T15:52:23;102127.75;;;8.95;100.00
73651;BME280;61944;52.538;6.108;2023-11-21T15:54:48;102125.91;;;8.99;100.00
73651;BME280;61944;52.538;6.108;2023-11-21T15:57:13;102131.97;;;9.01;100.00
73651;BME280;61944;52.538;6.108;2023-11-21T15:59:40;102130.53;;;9.25;100.00
73651;BME280;61944;52.538;6.108;2023-11-21T16:02:07;102140.50;;;9.05;100.00
73651;BME280;61944;52.538;6.108;2023-11-21T16:04:33;102150.19;;;9.07;100.00
73651;BME280;61944;52.538;6.108;2023-11-21T16:07:00;102153.56;;;9.22;100.00
73651;BME280;61944;52.538;6.108;2023-11-21T16:09:26;102159.72;;;9.06;100.00
73651;BME280;61944;52.538;6.108;2023-11-21T16:12:00;102163.75;;;8.88;100.00
73651;BME280;61944;52.538;6.108;2023-11-21T16:14:33;102164.00;;;9.04;100.00
73651;BME280;61944;52.538;6.108;2023-11-21T16:17:10;102159.47;;;8.90;100.00
73651;BME280;61944;52.538;6.108;2023-11-21T16:19:37;102166.94;;;8.69;100.00
73651;BME280;61944;52.538;6.108;2023-11-21T16:22:03;102172.97;;;8.80;100.00
73651;BME280;61944;52.538;6.108;2023-11-21T16:24:29;102187.91;;;8.84;100.00
73651;BME280;61944;52.538;6.108;2023-11-21T16:26:55;102183.25;;;8.58;100.00
73651;BME280;61944;52.538;6.108;2023-11-21T16:29:21;102193.03;;;8.73;100.00
73651;BME280;61944;52.538;6.108;2023-11-21T16:31:47;102202.03;;;8.79;100.00
73651;BME280;61944;52.538;6.108;2023-11-21T16:34:18;102207.50;;;8.66;100.00
73651;BME280;61944;52.538;6.108;2023-11-21T16:36:45;102207.09;;;8.94;100.00
73651;BME280;61944;52.538;6.108;2023-11-21T16:39:12;102213.81;;;8.93;100.00
73651;BME280;61944;52.538;6.108;2023-11-21T16:41:41;102228.34;;;8.78;100.00
73651;BME280;61944;52.538;6.108;2023-11-21T16:44:13;102231.66;;;8.62;100.00
73651;BME280;61944;52.538;6.108;2023-11-21T16:46:39;102230.00;;;8.61;100.00
73651;BME280;61944;52.538;6.108;2023-11-21T16:49:05;102239.69;;;8.55;100.00
73651;BME280;61944;52.538;6.108;2023-11-21T16:51:30;102248.88;;;8.55;100.00
73651;BME280;61944;52.538;6.108;2023-11-21T16:53:55;102253.47;;;8.78;100.00
73651;BME280;61944;52.538;6.108;2023-11-21T16:56:21;102264.59;;;10.56;100.00
73651;BME280;61944;52.538;6.108;2023-11-21T16:58:46;102274.38;;;9.78;100.00
73651;BME280;61944;52.538;6.108;2023-11-21T17:01:11;102265.28;;;9.30;100.00
73651;BME280;61944;52.538;6.108;2023-11-21T17:03:37;102270.25;;;9.16;100.00
73651;BME280;61944;52.538;6.108;2023-11-21T17:06:03;102275.38;;;9.05;100.00
73651;BME280;61944;52.538;6.108;2023-11-21T17:08:32;102281.50;;;8.99;100.00
73651;BME280;61944;52.538;6.108;2023-11-21T17:10:57;102292.91;;;8.50;100.00
73651;BME280;61944;52.538;6.108;2023-11-21T17:13:23;102289.94;;;8.46;100.00
73651;BME280;61944;52.538;6.108;2023-11-21T17:15:49;102302.72;;;8.39;100.00
73651;BME280;61944;52.538;6.108;2023-11-21T17:18:14;102311.25;;;8.33;100.00
73651;BME280;61944;52.538;6.108;2023-11-21T17:20:40;102310.97;;;8.44;100.00
73651;BME280;61944;52.538;6.108;2023-11-21T17:23:05;102312.75;;;8.48;100.00
73651;BME280;61944;52.538;6.108;2023-11-21T17:25:33;102321.59;;;8.33;100.00
73651;BME280;61944;52.538;6.108;2023-11-21T17:27:59;102325.03;;;8.21;100.00
73651;BME280;61944;52.538;6.108;2023-11-21T17:30:25;102330.28;;;8.31;100.00
73651;BME280;61944;52.538;6.108;2023-11-21T17:32:50;102333.56;;;8.33;100.00
73651;BME280;61944;52.538;6.108;2023-11-21T17:35:16;102327.69;;;8.35;100.00
73651;BME280;61944;52.538;6.108;2023-11-21T17:37:41;102345.72;;;8.38;100.00
73651;BME280;61944;52.538;6.108;2023-11-21T17:40:07;102332.41;;;8.26;100.00
73651;BME280;61944;52.538;6.108;2023-11-21T17:42:35;102346.03;;;8.27;100.00
73651;BME280;61944;52.538;6.108;2023-11-21T17:45:01;102359.69;;;8.38;100.00
73651;BME280;61944;52.538;6.108;2023-11-21T17:47:26;102353.41;;;8.32;100.00
73651;BME280;61944;52.538;6.108;2023-11-21T17:49:52;102356.81;;;8.11;100.00
73651;BME280;61944;52.538;6.108;2023-11-21T17:52:18;102353.72;;;8.13;100.00
73651;BME280;61944;52.538;6.108;2023-11-21T17:54:45;102361.94;;;8.18;100.00
73651;BME280;61944;52.538;6.108;2023-11-21T17:57:11;102357.94;;;7.93;100.00
73651;BME280;61944;52.538;6.108;2023-11-21T17:59:37;102358.16;;;8.05;100.00
73651;BME280;61944;52.538;6.108;2023-11-21T18:02:05;102360.44;;;8.03;100.00
73651;BME280;61944;52.538;6.108;2023-11-21T18:04:31;102359.28;;;8.04;100.00
73651;BME280;61944;52.538;6.108;2023-11-21T18:06:56;102366.66;;;8.09;100.00
73651;BME280;61944;52.538;6.108;2023-11-21T18:09:24;102367.13;;;7.93;100.00
73651;BME280;61944;52.538;6.108;2023-11-21T18:11:50;102365.44;;;7.84;100.00
73651;BME280;61944;52.538;6.108;2023-11-21T18:14:15;102360.88;;;8.71;100.00
73651;BME280;61944;52.538;6.108;2023-11-21T18:16:40;102373.44;;;8.34;100.00
73651;BME280;61944;52.538;6.108;2023-11-21T18:19:09;102374.06;;;8.13;100.00
73651;BME280;61944;52.538;6.108;2023-11-21T18:21:41;102372.09;;;8.05;100.00
73651;BME280;61944;52.538;6.108;2023-11-21T18:24:07;102375.50;;;8.02;100.00
73651;BME280;61944;52.538;6.108;2023-11-21T18:26:33;102384.53;;;7.99;100.00
73651;BME280;61944;52.538;6.108;2023-11-21T18:28:59;102383.38;;;7.91;100.00
73651;BME280;61944;52.538;6.108;2023-11-21T18:31:24;102380.03;;;7.81;100.00
73651;BME280;61944;52.538;6.108;2023-11-21T18:33:50;102395.81;;;7.85;100.00
73651;BME280;61944;52.538;6.108;2023-11-21T18:36:15;102393.59;;;7.73;100.00
73651;BME280;61944;52.538;6.108;2023-11-21T18:38:41;102399.03;;;7.70;100.00
73651;BME280;61944;52.538;6.108;2023-11-21T18:41:07;102403.44;;;7.71;100.00
73651;BME280;61944;52.538;6.108;2023-11-21T18:43:32;102414.44;;;7.67;100.00
73651;BME280;61944;52.538;6.108;2023-11-21T18:45:57;102414.75;;;7.66;100.00
73651;BME280;61944;52.538;6.108;2023-11-21T18:48:23;102413.53;;;7.58;100.00